createdAt,value
2023-02-05T00:00:45.470Z,93670.63
2023-02-05T00:03:12.368Z,93667.38
2023-02-05T00:05:39.051Z,93671.84
2023-02-05T00:08:05.852Z,93663.75
2023-02-05T00:10:32.855Z,93669.72
2023-02-05T00:12:59.634Z,93670.97
2023-02-05T00:15:26.372Z,93674.38
2023-02-05T00:17:53.187Z,93687.75
2023-02-05T00:20:19.984Z,93678.50
2023-02-05T00:22:46.750Z,93686.09
2023-02-05T00:25:13.499Z,93675.13
2023-02-05T00:27:40.271Z,93682.31
2023-02-05T00:30:07.858Z,93677.31
2023-02-05T00:32:34.582Z,93681.38
2023-02-05T00:35:01.294Z,93678.13
2023-02-05T00:37:28.071Z,93675.53
2023-02-05T00:39:54.852Z,93673.19
2023-02-05T00:42:21.661Z,93672.22
2023-02-05T00:44:48.475Z,93677.31
2023-02-05T00:47:15.309Z,93678.94
2023-02-05T00:49:42.014Z,93679.75
2023-02-05T00:52:09.105Z,93696.38
2023-02-05T00:54:35.904Z,93692.59
2023-02-05T00:57:02.756Z,93691.66
2023-02-05T00:59:29.509Z,93687.28
2023-02-05T01:01:56.249Z,93691.00
2023-02-05T01:04:22.994Z,93683.47
2023-02-05T01:06:49.856Z,93692.81
2023-02-05T01:09:16.585Z,93690.78
2023-02-05T01:11:44.159Z,93698.31
2023-02-05T01:14:11.074Z,93696.84
2023-02-05T01:16:37.810Z,93705.25
2023-02-05T01:19:04.530Z,93698.59
2023-02-05T01:21:31.559Z,93698.53
2023-02-05T01:24:00.088Z,93700.81
2023-02-05T01:26:26.899Z,93695.66
2023-02-05T01:28:53.778Z,93706.34
2023-02-05T01:31:22.098Z,93707.09
2023-02-05T01:33:48.947Z,93707.44
2023-02-05T01:36:16.515Z,93706.50
2023-02-05T01:38:43.246Z,93707.09
2023-02-05T01:41:12.303Z,93707.09
2023-02-05T01:43:39.096Z,93708.13
2023-02-05T01:46:22.367Z,93702.94
2023-02-05T01:48:51.802Z,93708.03
2023-02-05T01:51:18.865Z,93714.75
2023-02-05T01:53:46.720Z,93716.47
2023-02-05T01:56:21.460Z,93711.28
2023-02-05T01:58:53.775Z,93722.88
2023-02-05T02:01:20.633Z,93717.72
2023-02-05T02:03:49.204Z,93722.09
2023-02-05T02:06:15.950Z,93717.13
2023-02-05T02:08:42.679Z,93720.59
2023-02-05T02:11:11.367Z,93727.38
2023-02-05T02:13:39.240Z,93726.41
2023-02-05T02:16:06.924Z,93726.50
2023-02-05T02:18:35.082Z,93725.47
2023-02-05T02:21:08.038Z,93728.63
2023-02-05T02:23:47.139Z,93728.84
2023-02-05T02:26:25.158Z,93731.00
2023-02-05T02:28:56.190Z,93751.63
2023-02-05T02:31:32.679Z,93726.97
2023-02-05T02:34:08.556Z,93734.59
2023-02-05T02:36:58.575Z,93724.47
2023-02-05T02:39:59.366Z,93749.75
2023-02-05T02:42:40.085Z,93742.13
2023-02-05T02:45:11.128Z,93748.81
2023-02-05T02:47:42.422Z,93749.75
2023-02-05T02:50:14.298Z,93748.28
2023-02-05T02:52:43.368Z,93748.88
2023-02-05T02:55:11.673Z,93753.03
2023-02-05T02:57:44.073Z,93747.84
2023-02-05T03:00:14.109Z,93752.16
2023-02-05T03:02:41.495Z,93752.25
2023-02-05T03:05:13.006Z,93751.69
2023-02-05T03:07:43.453Z,93761.06
2023-02-05T03:10:16.517Z,93765.25
2023-02-05T03:12:43.293Z,93770.81
2023-02-05T03:15:10.438Z,93762.47
2023-02-05T03:17:38.227Z,93777.38
2023-02-05T03:20:28.764Z,93779.06
2023-02-05T03:22:58.954Z,93772.38
2023-02-05T03:25:28.206Z,93767.56
2023-02-05T03:27:57.834Z,93772.72
2023-02-05T03:30:30.996Z,93780.34
2023-02-05T03:33:23.879Z,93785.25
2023-02-05T03:35:59.902Z,93784.50
2023-02-05T03:38:38.814Z,93786.53
2023-02-05T03:41:21.075Z,93773.25
2023-02-05T03:44:08.397Z,93780.91
2023-02-05T03:47:00.138Z,93778.72
2023-02-05T03:49:53.334Z,93773.72
2023-02-05T03:52:29.960Z,93782.59
2023-02-05T03:55:19.583Z,93779.34
2023-02-05T03:57:58.305Z,93782.31
2023-02-05T04:00:26.226Z,93792.53
2023-02-05T04:02:54.803Z,93797.44
2023-02-05T04:05:26.097Z,93797.50
2023-02-05T04:07:55.258Z,93795.75
2023-02-05T04:10:26.729Z,93800.66
2023-02-05T04:12:53.839Z,93801.47
2023-02-05T04:15:21.329Z,93807.16
2023-02-05T04:17:52.510Z,93807.78
2023-02-05T04:20:19.517Z,93800.34
2023-02-05T04:22:46.421Z,93803.06
2023-02-05T04:25:13.397Z,93803.25
2023-02-05T04:27:40.555Z,93814.97
2023-02-05T04:30:07.780Z,93812.25
2023-02-05T04:32:38.363Z,93812.47
2023-02-05T04:35:05.561Z,93805.25
2023-02-05T04:37:32.413Z,93818.50
2023-02-05T04:40:00.063Z,93821.09
2023-02-05T04:42:26.821Z,93811.91
2023-02-05T04:44:54.524Z,93817.94
2023-02-05T04:47:21.509Z,93823.94
2023-02-05T04:49:48.374Z,93818.84
2023-02-05T04:52:15.132Z,93829.00
2023-02-05T04:54:41.861Z,93825.63
2023-02-05T04:57:08.706Z,93834.97
2023-02-05T04:59:35.445Z,93831.38
2023-02-05T05:02:02.165Z,93837.97
2023-02-05T05:04:29.029Z,93834.50
2023-02-05T05:06:55.689Z,93844.72
2023-02-05T05:09:24.274Z,93837.28
2023-02-05T05:11:52.260Z,93842.34
2023-02-05T05:14:19.214Z,93844.81
2023-02-05T05:16:46.020Z,93848.72
2023-02-05T05:19:12.899Z,93846.69
2023-02-05T05:21:39.675Z,93849.94
2023-02-05T05:24:06.767Z,93855.81
2023-02-05T05:26:33.613Z,93854.88
2023-02-05T05:29:00.381Z,93867.47
2023-02-05T05:31:27.240Z,93865.91
2023-02-05T05:33:54.021Z,93869.53
2023-02-05T05:36:20.774Z,93866.03
2023-02-05T05:38:47.680Z,93870.91
2023-02-05T05:41:56.410Z,93870.97
2023-02-05T05:44:23.185Z,93878.81
2023-02-05T05:46:49.906Z,93878.72
2023-02-05T05:49:16.620Z,93893.75
2023-02-05T05:51:43.349Z,93889.31
2023-02-05T05:54:10.113Z,93896.84
2023-02-05T05:56:36.870Z,93900.47
2023-02-05T05:59:04.004Z,93895.16
2023-02-05T06:01:30.751Z,93907.63
2023-02-05T06:03:57.500Z,93906.66
2023-02-05T06:06:24.492Z,93907.44
2023-02-05T06:08:51.127Z,93908.94
2023-02-05T06:11:18.191Z,93909.59
2023-02-05T06:13:45.018Z,93904.22
2023-02-05T06:16:11.861Z,93917.00
2023-02-05T06:18:38.687Z,93914.44
2023-02-05T06:21:05.945Z,93926.03
2023-02-05T06:23:33.869Z,93924.25
2023-02-05T06:26:00.577Z,93935.97
2023-02-05T06:28:27.367Z,93944.44
2023-02-05T06:30:54.282Z,93932.03
2023-02-05T06:33:21.025Z,93944.38
2023-02-05T06:35:47.811Z,93951.72
2023-02-05T06:38:14.656Z,93948.19
2023-02-05T06:40:41.622Z,93948.00
2023-02-05T06:43:08.409Z,93954.53
2023-02-05T06:45:35.444Z,93954.75
2023-02-05T06:48:02.401Z,93959.09
2023-02-05T06:50:29.228Z,93969.94
2023-02-05T06:52:58.739Z,93971.63
2023-02-05T06:55:25.324Z,93983.38
2023-02-05T06:57:52.154Z,93973.06
2023-02-05T07:00:19.248Z,93983.34
2023-02-05T07:02:46.122Z,93982.28
2023-02-05T07:05:12.913Z,93984.03
2023-02-05T07:07:39.807Z,93989.94
2023-02-05T07:10:06.783Z,93990.66
2023-02-05T07:12:33.505Z,93989.56
2023-02-05T07:15:00.355Z,93995.31
2023-02-05T07:17:27.128Z,93996.88
2023-02-05T07:19:53.936Z,94002.34
2023-02-05T07:22:20.832Z,94005.47
2023-02-05T07:24:47.594Z,94009.78
2023-02-05T07:27:14.509Z,94004.47
2023-02-05T07:29:41.504Z,93998.56
2023-02-05T07:32:08.419Z,94004.06
2023-02-05T07:34:35.404Z,94013.03
2023-02-05T07:37:02.180Z,94013.91
2023-02-05T07:39:29.030Z,94010.13
2023-02-05T07:41:55.756Z,94010.75
2023-02-05T07:44:31.158Z,94019.66
2023-02-05T07:46:57.997Z,94018.72
2023-02-05T07:49:24.779Z,94019.38
2023-02-05T07:51:51.530Z,94025.63
2023-02-05T07:54:18.295Z,94030.66
2023-02-05T07:56:45.059Z,94027.84
2023-02-05T07:59:11.896Z,94034.91
2023-02-05T08:01:38.654Z,94029.28
2023-02-05T08:04:05.557Z,94033.41
2023-02-05T08:06:33.422Z,94039.22
2023-02-05T08:09:00.110Z,94048.81
2023-02-05T08:11:26.969Z,94043.25
2023-02-05T08:13:53.724Z,94043.84
2023-02-05T08:16:21.430Z,94046.75
2023-02-05T08:18:49.838Z,94050.28
2023-02-05T08:21:17.662Z,94056.50
2023-02-05T08:23:44.426Z,94050.38
2023-02-05T08:26:12.079Z,94051.13
2023-02-05T08:28:38.840Z,94055.97
2023-02-05T08:31:14.776Z,94058.41
2023-02-05T08:33:41.698Z,94061.66
2023-02-05T08:36:09.585Z,94067.06
2023-02-05T08:38:36.428Z,94060.31
2023-02-05T08:41:13.658Z,94061.28
2023-02-05T08:43:41.815Z,94060.81
2023-02-05T08:46:09.924Z,94059.81
2023-02-05T08:48:36.858Z,94057.56
2023-02-05T08:51:03.988Z,94066.38
2023-02-05T08:53:32.338Z,94058.19
2023-02-05T08:56:00.662Z,94065.81
2023-02-05T08:58:27.999Z,94063.28
2023-02-05T09:01:05.592Z,94071.19
2023-02-05T09:03:32.575Z,94076.69
2023-02-05T09:06:00.167Z,94083.31
2023-02-05T09:08:28.022Z,94080.44
2023-02-05T09:10:55.318Z,94083.59
2023-02-05T09:13:22.190Z,94084.09
2023-02-05T09:15:49.160Z,94086.66
2023-02-05T09:18:16.226Z,94091.72
2023-02-05T09:20:49.013Z,94100.16
2023-02-05T09:23:17.520Z,94100.63
2023-02-05T09:25:44.478Z,94101.47
2023-02-05T09:28:13.244Z,94107.72
2023-02-05T09:30:42.410Z,94102.38
2023-02-05T09:33:10.479Z,94109.19
2023-02-05T09:35:37.426Z,94111.28
2023-02-05T09:38:04.217Z,94111.97
2023-02-05T09:40:40.257Z,94108.69
2023-02-05T09:43:44.464Z,94109.19
2023-02-05T09:46:43.600Z,94116.34
2023-02-05T09:49:21.864Z,94113.03
2023-02-05T09:51:51.420Z,94116.53
2023-02-05T09:54:23.163Z,94113.50
2023-02-05T09:56:51.198Z,94113.00
2023-02-05T09:59:21.943Z,94112.13
2023-02-05T10:01:53.672Z,94110.09
2023-02-05T10:04:20.967Z,94110.09
2023-02-05T10:06:58.947Z,94108.63
2023-02-05T10:09:54.393Z,94112.03
2023-02-05T10:12:50.414Z,94110.81
2023-02-05T10:15:31.328Z,94102.41
2023-02-05T10:18:09.675Z,94108.59
2023-02-05T10:20:54.803Z,94110.09
2023-02-05T10:24:09.571Z,94110.00
2023-02-05T10:26:44.947Z,94110.41
2023-02-05T10:29:36.082Z,94119.63
2023-02-05T10:32:16.713Z,94122.28
2023-02-05T10:34:57.412Z,94113.25
2023-02-05T10:37:36.996Z,94118.84
2023-02-05T10:40:12.021Z,94113.75
2023-02-05T10:42:42.204Z,94114.31
2023-02-05T10:45:11.896Z,94117.81
2023-02-05T10:48:02.998Z,94115.56
2023-02-05T10:50:47.756Z,94111.41
2023-02-05T10:53:19.724Z,94118.97
2023-02-05T10:55:46.845Z,94120.53
2023-02-05T10:58:27.226Z,94118.78
2023-02-05T11:00:54.298Z,94116.94
2023-02-05T11:03:22.655Z,94118.81
2023-02-05T11:05:50.138Z,94115.03
2023-02-05T11:08:38.486Z,94125.78
2023-02-05T11:11:06.635Z,94118.53
2023-02-05T11:13:38.280Z,94124.53
2023-02-05T11:16:08.463Z,94123.25
2023-02-05T11:18:46.419Z,94119.44
2023-02-05T11:21:13.384Z,94129.47
2023-02-05T11:23:41.105Z,94133.81
2023-02-05T11:26:18.457Z,94129.75
2023-02-05T11:28:45.259Z,94128.28
2023-02-05T11:31:27.580Z,94120.06
2023-02-05T11:34:16.879Z,94118.94
2023-02-05T11:36:52.687Z,94126.50
2023-02-05T11:39:25.460Z,94128.03
2023-02-05T11:41:53.155Z,94132.13
2023-02-05T11:44:30.424Z,94128.88
2023-02-05T11:46:59.828Z,94126.44
2023-02-05T11:49:38.026Z,94122.78
2023-02-05T11:52:12.954Z,94127.75
2023-02-05T11:54:45.967Z,94120.25
2023-02-05T11:57:19.701Z,94130.09
2023-02-05T11:59:55.224Z,94127.91
2023-02-05T12:02:30.940Z,94133.50
2023-02-05T12:05:09.450Z,94124.22
2023-02-05T12:07:47.342Z,94114.72
2023-02-05T12:10:26.166Z,94115.91
2023-02-05T12:13:14.328Z,94114.59
2023-02-05T12:15:46.938Z,94111.91
2023-02-05T12:18:19.283Z,94107.09
2023-02-05T12:21:11.006Z,94105.69
2023-02-05T12:23:54.656Z,94110.72
2023-02-05T12:26:35.064Z,94114.25
2023-02-05T12:29:01.806Z,94117.22
2023-02-05T12:31:50.675Z,94116.69
2023-02-05T12:34:52.364Z,94116.44
2023-02-05T12:37:43.418Z,94115.44
2023-02-05T12:40:38.864Z,94113.41
2023-02-05T12:47:06.588Z,94109.22
2023-02-05T12:49:54.749Z,94114.44
2023-02-05T12:52:50.879Z,94112.81
2023-02-05T12:55:36.868Z,94108.19
2023-02-05T12:58:10.985Z,94104.38
2023-02-05T13:01:02.053Z,94105.28
2023-02-05T13:03:38.436Z,94112.41
2023-02-05T13:06:27.111Z,94107.94
2023-02-05T13:09:01.020Z,94114.88
2023-02-05T13:11:41.467Z,94113.00
2023-02-05T13:14:29.272Z,94119.19
2023-02-05T13:17:11.093Z,94119.84
2023-02-05T13:19:41.428Z,94125.03
2023-02-05T13:22:40.236Z,94123.75
2023-02-05T13:25:54.126Z,94119.28
2023-02-05T13:28:45.036Z,94119.00
2023-02-05T13:31:27.325Z,94113.38
2023-02-05T13:34:03.090Z,94111.63
2023-02-05T13:36:43.925Z,94123.97
2023-02-05T13:39:49.573Z,94126.50
2023-02-05T13:42:32.165Z,94122.59
2023-02-05T13:45:22.330Z,94126.09
2023-02-05T13:48:36.905Z,94127.34
2023-02-05T13:51:43.295Z,94128.56
2023-02-05T13:54:32.072Z,94129.00
2023-02-05T13:57:23.257Z,94131.28
2023-02-05T13:59:54.784Z,94131.78
2023-02-05T14:02:43.722Z,94136.50
2023-02-05T14:05:15.740Z,94142.91
2023-02-05T14:07:49.258Z,94141.09
2023-02-05T14:10:32.071Z,94146.13
2023-02-05T14:13:13.791Z,94139.69
2023-02-05T14:15:47.235Z,94138.34
2023-02-05T14:18:40.228Z,94140.91
2023-02-05T14:21:30.440Z,94142.78
2023-02-05T14:24:29.626Z,94145.63
2023-02-05T14:26:57.752Z,94149.38
2023-02-05T14:29:43.541Z,94149.38
2023-02-05T14:32:29.096Z,94147.69
2023-02-05T14:35:06.595Z,94151.94
2023-02-05T14:37:40.142Z,94149.56
2023-02-05T14:40:39.307Z,94157.78
2023-02-05T14:43:32.959Z,94162.16
2023-02-05T14:46:25.739Z,94155.81
2023-02-05T14:49:00.575Z,94159.53
2023-02-05T14:51:37.504Z,94161.53
2023-02-05T14:54:21.555Z,94156.75
2023-02-05T14:56:49.531Z,94163.47
2023-02-05T14:59:22.830Z,94157.63
2023-02-05T15:01:54.511Z,94162.97
2023-02-05T15:04:26.065Z,94159.66
2023-02-05T15:06:59.878Z,94167.63
2023-02-05T15:09:53.870Z,94170.34
2023-02-05T15:12:36.046Z,94180.75
2023-02-05T15:15:28.173Z,94184.91
2023-02-05T15:17:58.219Z,94190.09
2023-02-05T15:20:32.496Z,94185.47
2023-02-05T15:23:06.179Z,94193.09
2023-02-05T15:25:42.305Z,94192.69
2023-02-05T15:28:13.469Z,94194.59
2023-02-05T15:30:48.420Z,94198.72
2023-02-05T15:33:29.539Z,94194.25
2023-02-05T15:35:57.231Z,94201.31
2023-02-05T15:38:31.657Z,94196.00
2023-02-05T15:40:59.425Z,94203.25
2023-02-05T15:43:27.305Z,94206.16
2023-02-05T15:46:04.097Z,94202.13
2023-02-05T15:48:36.877Z,94200.88
2023-02-05T15:51:28.346Z,94198.53
2023-02-05T15:53:57.250Z,94200.44
2023-02-05T15:56:34.844Z,94204.63
2023-02-05T15:59:25.539Z,94210.19
2023-02-05T16:02:18.839Z,94207.09
2023-02-05T16:04:58.599Z,94206.63
2023-02-05T16:07:34.014Z,94212.81
2023-02-05T16:10:14.733Z,94215.88
2023-02-05T16:13:06.548Z,94221.75
2023-02-05T16:15:41.241Z,94217.69
2023-02-05T16:18:19.494Z,94223.56
2023-02-05T16:20:51.042Z,94220.91
2023-02-05T16:23:28.032Z,94220.38
2023-02-05T16:26:03.039Z,94227.84
2023-02-05T16:28:48.752Z,94230.53
2023-02-05T16:31:21.504Z,94221.88
2023-02-05T16:34:05.631Z,94222.41
2023-02-05T16:36:52.675Z,94217.06
2023-02-05T16:39:35.311Z,94214.50
2023-02-05T16:42:06.698Z,94222.06
2023-02-05T16:44:39.235Z,94220.53
2023-02-05T16:47:10.723Z,94214.75
2023-02-05T16:49:39.894Z,94218.03
2023-02-05T16:56:27.066Z,94221.28
2023-02-05T16:58:56.272Z,94216.09
2023-02-05T17:01:30.507Z,94218.56
2023-02-05T17:04:35.482Z,94223.63
2023-02-05T17:07:23.717Z,94218.22
2023-02-05T17:09:53.684Z,94221.53
2023-02-05T17:12:40.488Z,94223.09
2023-02-05T17:15:36.564Z,94215.63
2023-02-05T17:18:28.568Z,94221.78
2023-02-05T17:21:26.613Z,94228.31
2023-02-05T17:24:14.672Z,94225.66
2023-02-05T17:27:00.471Z,94220.88
2023-02-05T17:29:58.756Z,94223.59
2023-02-05T17:32:26.876Z,94223.59
2023-02-05T17:34:57.767Z,94221.72
2023-02-05T17:37:25.137Z,94219.28
2023-02-05T17:40:20.627Z,94218.59
2023-02-05T17:42:55.626Z,94227.03
2023-02-05T17:45:28.131Z,94217.00
2023-02-05T17:48:05.417Z,94219.69
2023-02-05T17:50:35.916Z,94207.09
2023-02-05T17:55:44.789Z,94215.28
2023-02-05T17:58:17.069Z,94217.06
2023-02-05T18:00:52.047Z,94222.09
2023-02-05T18:03:21.458Z,94224.63
2023-02-05T18:05:48.563Z,94223.78
2023-02-05T18:08:19.477Z,94225.63
2023-02-05T18:10:52.896Z,94226.44
2023-02-05T18:13:21.987Z,94232.16
2023-02-05T18:15:52.722Z,94223.66
2023-02-05T18:18:19.880Z,94228.84
2023-02-05T18:20:46.884Z,94228.91
2023-02-05T18:23:18.652Z,94226.28
2023-02-05T18:25:52.756Z,94222.78
2023-02-05T18:28:19.854Z,94212.50
2023-02-05T18:30:46.907Z,94215.16
2023-02-05T18:33:13.948Z,94217.94
2023-02-05T18:35:40.844Z,94220.50
2023-02-05T18:38:07.836Z,94225.50
2023-02-05T18:43:18.561Z,94222.91
2023-02-05T18:45:45.959Z,94228.66
2023-02-05T18:48:14.050Z,94227.84
2023-02-05T18:50:41.158Z,94226.09
2023-02-05T18:53:08.185Z,94233.78
2023-02-05T18:55:40.485Z,94224.09
2023-02-05T18:58:07.722Z,94225.66
2023-02-05T19:00:40.879Z,94220.63
2023-02-05T19:03:07.901Z,94217.28
2023-02-05T19:05:34.977Z,94224.84
2023-02-05T19:08:20.563Z,94232.44
2023-02-05T19:11:10.267Z,94223.13
2023-02-05T19:13:43.621Z,94222.19
2023-02-05T19:16:13.660Z,94222.13
2023-02-05T19:18:42.729Z,94221.28
2023-02-05T19:21:13.061Z,94231.25
2023-02-05T19:23:40.928Z,94236.31
2023-02-05T19:26:10.108Z,94233.03
2023-02-05T19:28:37.274Z,94233.91
2023-02-05T19:31:05.870Z,94228.00
2023-02-05T19:33:37.154Z,94226.28
2023-02-05T19:36:05.431Z,94238.00
2023-02-05T19:38:34.783Z,94228.09
2023-02-05T19:41:12.614Z,94235.69
2023-02-05T19:43:50.191Z,94239.84
2023-02-05T19:46:25.086Z,94239.22
2023-02-05T19:48:52.884Z,94237.50
2023-02-05T19:51:20.385Z,94236.56
2023-02-05T19:53:47.763Z,94243.41
2023-02-05T19:56:22.775Z,94243.22
2023-02-05T19:58:53.555Z,94234.13
2023-02-05T20:01:23.909Z,94230.59
2023-02-05T20:03:52.609Z,94229.81
2023-02-05T20:06:21.655Z,94236.44
2023-02-05T20:08:48.625Z,94244.72
2023-02-05T20:11:16.388Z,94251.28
2023-02-05T20:13:43.655Z,94249.81
2023-02-05T20:16:22.045Z,94255.81
2023-02-05T20:18:57.799Z,94254.09
2023-02-05T20:21:25.344Z,94250.84
2023-02-05T20:23:53.088Z,94255.06
2023-02-05T20:26:22.271Z,94254.38
2023-02-05T20:29:11.368Z,94251.72
2023-02-05T20:31:42.947Z,94250.78
2023-02-05T20:34:22.475Z,94253.31
2023-02-05T20:36:54.999Z,94260.91
2023-02-05T20:39:24.233Z,94259.38
2023-02-05T20:41:52.416Z,94256.00
2023-02-05T20:44:20.058Z,94251.75
2023-02-05T20:46:47.457Z,94257.53
2023-02-05T20:49:17.040Z,94265.91
2023-02-05T20:51:44.574Z,94266.69
2023-02-05T20:54:12.064Z,94261.41
2023-02-05T20:56:39.480Z,94261.59
2023-02-05T20:59:09.453Z,94263.38
2023-02-05T21:01:37.534Z,94261.72
2023-02-05T21:04:06.635Z,94258.16
2023-02-05T21:06:37.001Z,94272.34
2023-02-05T21:09:05.009Z,94270.59
2023-02-05T21:11:31.961Z,94267.34
2023-02-05T21:13:59.003Z,94272.41
2023-02-05T21:16:27.648Z,94265.75
2023-02-05T21:18:55.656Z,94276.59
2023-02-05T21:21:29.591Z,94269.03
2023-02-05T21:24:00.830Z,94278.06
2023-02-05T21:26:33.293Z,94275.69
2023-02-05T21:29:03.555Z,94273.88
2023-02-05T21:31:34.351Z,94279.72
2023-02-05T21:34:02.804Z,94276.44
2023-02-05T21:36:30.315Z,94280.75
2023-02-05T21:38:57.571Z,94272.44
2023-02-05T21:41:24.975Z,94280.75
2023-02-05T21:43:54.499Z,94281.66
2023-02-05T21:46:21.702Z,94279.22
2023-02-05T21:48:55.167Z,94282.44
2023-02-05T21:51:23.950Z,94280.75
2023-02-05T21:53:59.154Z,94286.56
2023-02-05T21:56:40.475Z,94286.56
2023-02-05T21:59:07.850Z,94298.16
2023-02-05T22:01:36.266Z,94286.81
2023-02-05T22:04:14.050Z,94298.38
2023-02-05T22:06:41.610Z,94293.31
2023-02-05T22:09:11.811Z,94292.56
2023-02-05T22:11:42.485Z,94292.41
2023-02-05T22:14:10.357Z,94301.66
2023-02-05T22:16:38.031Z,94308.63
2023-02-05T22:19:05.892Z,94308.41
2023-02-05T22:21:41.168Z,94307.78
2023-02-05T22:24:10.711Z,94308.78
2023-02-05T22:26:39.153Z,94316.13
2023-02-05T22:29:07.470Z,94312.91
2023-02-05T22:31:35.304Z,94306.97
2023-02-05T22:34:02.212Z,94309.75
2023-02-05T22:36:31.406Z,94308.84
2023-02-05T22:38:58.851Z,94315.47
2023-02-05T22:41:40.848Z,94313.66
2023-02-05T22:44:09.549Z,94309.59
2023-02-05T22:46:42.494Z,94320.47
2023-02-05T22:49:12.836Z,94313.94
2023-02-05T22:51:40.968Z,94313.94
2023-02-05T22:54:10.836Z,94312.19
2023-02-05T22:56:38.260Z,94307.25
2023-02-05T22:59:05.850Z,94308.97
2023-02-05T23:01:34.827Z,94302.28
2023-02-05T23:04:03.896Z,94306.47
2023-02-05T23:06:33.590Z,94297.22
2023-02-05T23:09:04.143Z,94299.56
2023-02-05T23:11:32.446Z,94299.78
2023-02-05T23:14:00.520Z,94299.00
2023-02-05T23:16:30.184Z,94301.34
2023-02-05T23:19:00.269Z,94297.34
2023-02-05T23:21:31.462Z,94294.09
2023-02-05T23:23:58.643Z,94293.16
2023-02-05T23:26:27.872Z,94303.19
2023-02-05T23:28:55.845Z,94298.97
2023-02-05T23:31:24.443Z,94298.97
2023-02-05T23:33:52.385Z,94304.81
2023-02-05T23:36:19.328Z,94303.13
2023-02-05T23:38:47.660Z,94296.66
2023-02-05T23:41:14.653Z,94300.75
2023-02-05T23:43:41.743Z,94294.59
2023-02-05T23:46:09.018Z,94298.09
2023-02-05T23:48:36.052Z,94294.22
2023-02-05T23:51:03.021Z,94300.75
2023-02-05T23:53:29.931Z,94304.22
2023-02-05T23:55:56.829Z,94296.59
2023-02-05T23:58:26.076Z,94304.06
